createdAt,value
2023-03-28T00:00:00.522Z,7.47
2023-03-28T00:02:27.638Z,6.80
2023-03-28T00:04:54.819Z,6.90
2023-03-28T00:07:22.503Z,7.23
2023-03-28T00:09:50.361Z,7.17
2023-03-28T00:12:17.476Z,6.60
2023-03-28T00:14:46.339Z,7.07
2023-03-28T00:17:13.632Z,8.50
2023-03-28T00:19:41.140Z,6.90
2023-03-28T00:22:08.673Z,7.70
2023-03-28T00:24:39.027Z,8.13
2023-03-28T00:27:07.326Z,7.60
2023-03-28T00:29:34.788Z,7.37
2023-03-28T00:32:03.036Z,6.70
2023-03-28T00:34:30.501Z,7.30
2023-03-28T00:36:58.608Z,7.90
2023-03-28T00:39:27.832Z,7.30
2023-03-28T00:41:55.923Z,7.23
2023-03-28T00:44:58.859Z,7.73
2023-03-28T00:47:59.061Z,7.97
2023-03-28T00:50:30.967Z,7.87
2023-03-28T00:53:22.115Z,6.50
2023-03-28T00:56:23.507Z,9.20
2023-03-28T00:58:52.172Z,9.20
2023-03-28T01:01:20.611Z,8.43
2023-03-28T01:03:56.546Z,8.77
2023-03-28T01:06:26.023Z,9.37
2023-03-28T01:08:54.100Z,7.83
2023-03-28T01:11:23.802Z,7.20
2023-03-28T01:13:53.118Z,6.97
2023-03-28T01:16:30.957Z,6.00
2023-03-28T01:19:03.898Z,5.80
2023-03-28T01:22:13.959Z,6.10
2023-03-28T01:25:26.618Z,5.50
2023-03-28T01:28:44.400Z,5.00
2023-03-28T01:31:33.480Z,4.57
2023-03-28T01:35:30.059Z,5.03
2023-03-28T01:41:57.549Z,5.40
2023-03-28T01:44:47.359Z,5.00
2023-03-28T01:47:27.298Z,4.80
2023-03-28T01:50:14.970Z,4.00
2023-03-28T01:59:57.873Z,4.20
2023-03-28T02:03:17.819Z,4.27
2023-03-28T02:06:08.417Z,3.87
2023-03-28T02:08:40.102Z,4.13
2023-03-28T02:11:27.757Z,3.70
2023-03-28T02:14:39.431Z,4.40
2023-03-28T02:17:43.839Z,3.70
2023-03-28T02:20:38.287Z,4.37
2023-03-28T02:23:37.114Z,4.20
2023-03-28T02:26:31.198Z,3.97
2023-03-28T02:32:13.025Z,3.70
2023-03-28T02:34:42.011Z,3.67
2023-03-28T02:37:38.789Z,3.80
2023-03-28T02:40:49.861Z,3.67
2023-03-28T02:44:24.381Z,3.97
2023-03-28T02:47:33.587Z,3.73
2023-03-28T02:50:22.274Z,3.97
2023-03-28T02:53:33.069Z,4.57
2023-03-28T02:56:29.716Z,4.20
2023-03-28T02:59:14.887Z,4.03
2023-03-28T03:01:42.931Z,4.47
2023-03-28T03:04:10.112Z,4.17
2023-03-28T03:06:37.354Z,3.30
2023-03-28T03:09:05.035Z,3.90
2023-03-28T03:11:32.541Z,4.63
2023-03-28T03:14:00.552Z,3.97
2023-03-28T03:16:29.913Z,3.83
2023-03-28T03:18:58.573Z,4.77
2023-03-28T03:21:26.300Z,4.23
2023-03-28T03:23:53.402Z,5.27
2023-03-28T03:26:20.797Z,5.10
2023-03-28T03:29:00.912Z,4.53
2023-03-28T03:31:28.912Z,4.30
2023-03-28T03:34:34.035Z,4.50
2023-03-28T03:37:02.497Z,5.00
2023-03-28T03:39:29.978Z,4.90
2023-03-28T03:41:57.506Z,5.03
2023-03-28T03:44:24.797Z,4.60
2023-03-28T03:46:52.651Z,5.20
2023-03-28T03:49:19.812Z,5.27
2023-03-28T03:51:47.156Z,4.57
2023-03-28T03:54:16.971Z,4.73
2023-03-28T03:56:44.197Z,5.77
2023-03-28T03:59:12.310Z,4.83
2023-03-28T04:01:41.680Z,4.73
2023-03-28T04:04:28.298Z,5.37
2023-03-28T04:07:15.966Z,7.10
2023-03-28T04:09:46.666Z,5.70
2023-03-28T04:12:15.627Z,6.53
2023-03-28T04:14:48.562Z,5.63
2023-03-28T04:17:35.522Z,5.43
2023-03-28T04:20:13.872Z,6.03
2023-03-28T04:23:02.100Z,5.70
2023-03-28T04:25:31.571Z,6.57
2023-03-28T04:28:04.751Z,6.57
2023-03-28T04:30:38.331Z,6.17
2023-03-28T04:33:34.916Z,6.50
2023-03-28T04:36:06.031Z,7.47
2023-03-28T04:38:37.590Z,7.60
2023-03-28T04:41:19.098Z,8.07
2023-03-28T04:44:24.917Z,7.80
2023-03-28T04:47:00.910Z,7.30
2023-03-28T04:49:28.069Z,8.77
2023-03-28T04:51:55.380Z,8.27
2023-03-28T04:54:22.840Z,6.87
2023-03-28T04:57:09.976Z,8.67
2023-03-28T04:59:46.095Z,9.07
2023-03-28T05:02:22.189Z,9.03
2023-03-28T05:05:00.049Z,9.13
2023-03-28T05:07:27.277Z,8.43
2023-03-28T05:09:54.970Z,8.33
2023-03-28T05:12:22.177Z,8.93
2023-03-28T05:14:56.951Z,8.53
2023-03-28T05:17:25.161Z,12.63
2023-03-28T05:20:16.761Z,11.13
2023-03-28T05:22:50.971Z,11.98
2023-03-28T05:25:18.377Z,11.40
2023-03-28T05:27:46.417Z,14.33
2023-03-28T05:30:13.832Z,14.77
2023-03-28T05:32:41.757Z,15.97
2023-03-28T05:35:13.790Z,17.27
2023-03-28T05:37:43.014Z,19.37
2023-03-28T05:40:12.713Z,11.07
2023-03-28T05:42:41.903Z,10.37
2023-03-28T05:45:13.304Z,8.60
2023-03-28T05:47:56.984Z,10.30
2023-03-28T05:50:26.368Z,9.73
2023-03-28T05:52:59.931Z,9.33
2023-03-28T05:55:27.072Z,9.40
2023-03-28T05:57:54.112Z,9.70
2023-03-28T06:00:24.583Z,8.97
2023-03-28T06:02:54.999Z,9.77
2023-03-28T06:05:31.649Z,8.30
2023-03-28T06:07:58.854Z,9.07
2023-03-28T06:10:28.690Z,8.53
2023-03-28T06:13:15.849Z,9.33
2023-03-28T06:15:45.633Z,9.10
2023-03-28T06:18:12.814Z,8.90
2023-03-28T06:20:45.064Z,8.27
2023-03-28T06:23:12.675Z,8.80
2023-03-28T06:25:39.776Z,10.23
2023-03-28T06:28:07.445Z,15.40
2023-03-28T06:30:48.502Z,14.70
2023-03-28T06:33:15.993Z,15.13
2023-03-28T06:35:43.328Z,17.60
2023-03-28T06:38:10.679Z,14.03
2023-03-28T06:40:46.729Z,15.33
2023-03-28T06:43:13.911Z,18.57
2023-03-28T06:45:46.811Z,15.23
2023-03-28T06:48:15.216Z,13.73
2023-03-28T06:51:17.511Z,15.33
2023-03-28T06:53:46.043Z,14.13
2023-03-28T06:56:18.471Z,15.17
2023-03-28T06:58:45.832Z,9.13
2023-03-28T07:01:16.472Z,9.93
2023-03-28T07:04:06.612Z,8.80
2023-03-28T07:06:35.582Z,10.77
2023-03-28T07:09:04.830Z,9.47
2023-03-28T07:11:49.142Z,10.13
2023-03-28T07:14:17.421Z,9.97
2023-03-28T07:16:44.802Z,9.10
2023-03-28T07:19:11.958Z,8.63
2023-03-28T07:21:42.436Z,9.37
2023-03-28T07:24:09.778Z,6.97
2023-03-28T07:27:11.892Z,8.70
2023-03-28T07:29:42.731Z,8.20
2023-03-28T07:32:10.068Z,8.97
2023-03-28T07:34:37.262Z,8.83
2023-03-28T07:37:05.457Z,9.40
2023-03-28T07:39:51.306Z,8.87
2023-03-28T07:42:22.551Z,7.80
2023-03-28T07:44:49.695Z,7.57
2023-03-28T07:47:18.336Z,7.97
2023-03-28T07:49:46.035Z,8.13
2023-03-28T07:52:14.102Z,7.57
2023-03-28T07:54:41.879Z,8.23
2023-03-28T07:57:09.185Z,6.67
2023-03-28T07:59:56.285Z,7.50
2023-03-28T08:02:24.083Z,6.93
2023-03-28T08:04:53.714Z,7.47
2023-03-28T08:07:25.778Z,6.33
2023-03-28T08:09:55.238Z,5.70
2023-03-28T08:12:29.539Z,6.40
2023-03-28T08:14:56.736Z,5.77
2023-03-28T08:17:24.477Z,6.60
2023-03-28T08:19:53.306Z,6.07
2023-03-28T08:22:49.510Z,6.07
2023-03-28T08:25:39.501Z,6.00
2023-03-28T08:28:08.003Z,5.67
2023-03-28T08:30:35.739Z,5.60
2023-03-28T08:33:06.533Z,5.43
2023-03-28T08:35:34.038Z,5.13
2023-03-28T08:38:10.470Z,5.80
2023-03-28T08:40:44.345Z,5.30
2023-03-28T08:44:05.520Z,6.33
2023-03-28T08:46:35.433Z,5.90
2023-03-28T08:49:12.060Z,6.07
2023-03-28T08:51:47.774Z,6.03
2023-03-28T08:54:20.921Z,5.83
2023-03-28T08:56:55.618Z,5.80
2023-03-28T08:59:50.451Z,6.37
2023-03-28T09:02:23.164Z,5.40
2023-03-28T09:04:51.621Z,6.00
2023-03-28T09:08:00.475Z,5.90
2023-03-28T09:10:42.983Z,5.73
2023-03-28T09:14:03.014Z,5.53
2023-03-28T09:17:01.586Z,5.03
2023-03-28T09:20:11.384Z,5.20
2023-03-28T09:23:52.951Z,4.90
2023-03-28T09:26:45.414Z,5.10
2023-03-28T09:29:24.854Z,5.07
2023-03-28T09:32:12.604Z,5.50
2023-03-28T09:34:51.549Z,4.20
2023-03-28T09:37:38.170Z,4.43
2023-03-28T09:40:19.386Z,4.87
2023-03-28T09:43:33.461Z,4.77
2023-03-28T09:46:48.688Z,5.27
2023-03-28T09:49:33.687Z,3.90
2023-03-28T09:52:21.659Z,4.27
2023-03-28T09:54:49.184Z,4.30
2023-03-28T09:57:16.460Z,4.00
2023-03-28T09:59:58.801Z,4.17
2023-03-28T10:02:33.016Z,4.07
2023-03-28T10:05:30.253Z,4.00
2023-03-28T10:08:06.029Z,3.90
2023-03-28T10:10:59.915Z,3.50
2023-03-28T10:13:28.255Z,3.93
2023-03-28T10:15:58.867Z,3.83
2023-03-28T10:18:52.325Z,3.40
2023-03-28T10:21:48.766Z,4.50
2023-03-28T10:24:22.755Z,3.83
2023-03-28T10:26:59.192Z,3.90
2023-03-28T10:29:27.195Z,2.90
2023-03-28T10:31:55.202Z,3.23
2023-03-28T10:34:33.686Z,2.90
2023-03-28T10:37:30.090Z,3.43
2023-03-28T10:40:26.721Z,3.10
2023-03-28T10:43:34.264Z,2.97
2023-03-28T10:46:20.267Z,3.17
2023-03-28T10:49:15.622Z,2.60
2023-03-28T10:51:46.016Z,2.93
2023-03-28T10:54:52.172Z,2.90
2023-03-28T10:58:01.417Z,2.93
2023-03-28T11:00:47.145Z,2.40
2023-03-28T11:03:55.796Z,2.87
2023-03-28T11:07:05.464Z,3.00
2023-03-28T11:10:16.101Z,3.10
2023-03-28T11:13:49.542Z,2.63
2023-03-28T11:17:00.635Z,2.67
2023-03-28T12:06:27.321Z,2.83
2023-03-28T12:09:26.466Z,2.60
2023-03-28T12:12:10.636Z,2.57
2023-03-28T12:15:12.347Z,2.67
2023-03-28T12:18:07.862Z,2.40
2023-03-28T12:21:00.858Z,2.43
2023-03-28T12:24:37.514Z,2.63
2023-03-28T12:31:30.999Z,2.43
2023-03-28T12:34:38.382Z,2.80
2023-03-28T13:42:26.946Z,2.87
2023-03-28T13:44:58.603Z,2.97
2023-03-28T13:47:33.818Z,3.20
2023-03-28T13:50:22.829Z,2.63
2023-03-28T13:52:49.993Z,3.60
2023-03-28T13:55:25.434Z,3.10
2023-03-28T13:57:53.448Z,3.20
2023-03-28T14:00:23.783Z,2.90
2023-03-28T14:02:53.625Z,3.20
2023-03-28T14:05:27.195Z,3.20
2023-03-28T14:08:01.542Z,3.37
2023-03-28T14:10:34.893Z,3.37
2023-03-28T14:13:11.250Z,3.17
2023-03-28T14:15:40.711Z,2.90
2023-03-28T14:18:25.243Z,3.97
2023-03-28T14:20:56.062Z,3.60
2023-03-28T14:23:41.078Z,3.33
2023-03-28T14:26:20.218Z,3.53
2023-03-28T14:28:47.474Z,3.27
2023-03-28T14:31:28.386Z,3.30
2023-03-28T14:33:58.671Z,3.57
2023-03-28T14:36:31.201Z,3.50
2023-03-28T14:39:14.069Z,2.80
2023-03-28T14:41:43.496Z,3.00
2023-03-28T14:44:13.444Z,3.10
2023-03-28T14:46:41.288Z,3.20
2023-03-28T14:49:12.001Z,2.60
2023-03-28T14:51:43.261Z,2.13
2023-03-28T14:54:14.559Z,2.67
2023-03-28T14:56:42.240Z,2.60
2023-03-28T14:59:16.077Z,2.50
2023-03-28T15:01:45.356Z,3.10
2023-03-28T15:04:13.488Z,2.63
2023-03-28T15:06:40.716Z,2.33
2023-03-28T15:09:37.080Z,2.50
2023-03-28T15:12:08.049Z,2.57
2023-03-28T15:14:43.002Z,2.30
2023-03-28T15:17:19.009Z,2.40
2023-03-28T15:19:48.324Z,2.47
2023-03-28T15:22:24.510Z,2.20
2023-03-28T15:24:51.945Z,2.40
2023-03-28T15:27:35.212Z,2.87
2023-03-28T15:30:12.640Z,2.47
2023-03-28T15:32:40.043Z,2.70
2023-03-28T15:35:31.504Z,2.43
2023-03-28T15:38:07.340Z,2.20
2023-03-28T15:40:51.578Z,2.17
2023-03-28T15:44:11.564Z,2.37
2023-03-28T15:46:39.386Z,2.63
2023-03-28T15:49:07.534Z,2.50
2023-03-28T15:51:49.614Z,3.00
2023-03-28T15:54:30.340Z,2.57
2023-03-28T15:57:02.168Z,2.60
2023-03-28T15:59:42.358Z,2.70
2023-03-28T16:02:40.907Z,2.73
2023-03-28T16:05:31.925Z,2.60
2023-03-28T16:07:59.230Z,2.67
2023-03-28T16:10:26.384Z,2.50
2023-03-28T16:13:31.891Z,2.97
2023-03-28T16:16:26.307Z,2.73
2023-03-28T16:19:02.695Z,2.67
2023-03-28T16:21:31.085Z,2.53
2023-03-28T16:23:58.155Z,2.50
2023-03-28T16:26:25.413Z,2.83
2023-03-28T16:28:52.456Z,2.33
2023-03-28T16:31:19.608Z,2.30
2023-03-28T16:33:46.708Z,2.57
2023-03-28T16:36:14.084Z,2.50
2023-03-28T16:38:41.158Z,3.17
2023-03-28T16:41:08.860Z,2.80
2023-03-28T16:43:37.903Z,2.47
2023-03-28T16:46:05.596Z,2.87
2023-03-28T16:48:33.786Z,2.50
2023-03-28T16:51:07.271Z,3.10
2023-03-28T16:53:36.725Z,2.73
2023-03-28T16:56:05.251Z,2.90
2023-03-28T16:58:32.717Z,3.53
2023-03-28T17:01:19.780Z,3.13
2023-03-28T17:03:47.629Z,3.10
2023-03-28T17:06:16.704Z,2.67
2023-03-28T17:08:44.564Z,2.40
2023-03-28T17:11:12.758Z,2.50
2023-03-28T17:13:41.331Z,2.70
2023-03-28T17:16:09.871Z,2.33
2023-03-28T17:18:37.481Z,2.40
2023-03-28T17:21:07.166Z,2.77
2023-03-28T17:23:35.800Z,2.50
2023-03-28T17:26:03.211Z,2.83
2023-03-28T17:28:30.965Z,2.30
2023-03-28T17:30:58.138Z,2.60
2023-03-28T17:33:29.439Z,2.20
2023-03-28T17:35:56.604Z,2.67
2023-03-28T17:38:23.771Z,2.70
2023-03-28T17:40:50.946Z,2.50
2023-03-28T17:43:18.295Z,3.50
2023-03-28T17:45:45.414Z,2.40
2023-03-28T17:48:12.698Z,2.83
2023-03-28T17:50:39.848Z,2.20
2023-03-28T17:53:07.012Z,2.80
2023-03-28T17:55:34.569Z,2.27
2023-03-28T17:58:02.240Z,3.03
2023-03-28T18:00:31.520Z,2.70
2023-03-28T18:02:58.983Z,2.23
2023-03-28T18:05:54.026Z,2.60
2023-03-28T18:08:21.873Z,3.00
2023-03-28T18:10:48.946Z,2.97
2023-03-28T18:13:16.105Z,3.00
2023-03-28T18:15:44.351Z,2.80
2023-03-28T18:18:14.319Z,3.00
2023-03-28T18:20:44.515Z,2.30
2023-03-28T18:23:12.052Z,2.97
2023-03-28T18:25:39.592Z,3.30
2023-03-28T18:28:07.752Z,3.23
2023-03-28T18:30:35.225Z,3.07
2023-03-28T18:33:02.707Z,3.10
2023-03-28T18:35:30.139Z,2.73
2023-03-28T18:37:57.690Z,2.70
2023-03-28T18:40:24.891Z,3.33
2023-03-28T18:42:52.107Z,3.40
2023-03-28T18:45:19.462Z,3.17
2023-03-28T18:47:46.722Z,3.80
2023-03-28T18:50:15.248Z,3.60
2023-03-28T18:52:42.994Z,2.63
2023-03-28T18:55:12.146Z,3.40
2023-03-28T18:57:40.408Z,3.43
2023-03-28T19:00:20.630Z,3.53
2023-03-28T19:02:49.478Z,3.33
2023-03-28T19:05:17.559Z,3.27
2023-03-28T19:07:45.897Z,3.07
2023-03-28T19:10:13.506Z,2.60
2023-03-28T19:12:41.755Z,2.80
2023-03-28T19:15:11.060Z,2.93
2023-03-28T19:17:40.015Z,2.83
2023-03-28T19:20:12.206Z,3.30
2023-03-28T19:22:42.757Z,3.10
2023-03-28T19:25:10.362Z,2.87
2023-03-28T19:27:38.078Z,2.67
2023-03-28T19:30:07.324Z,2.87
2023-03-28T19:32:34.762Z,2.70
2023-03-28T19:35:01.874Z,3.17
2023-03-28T19:37:29.345Z,3.20
2023-03-28T19:39:59.197Z,3.20
2023-03-28T19:42:26.412Z,2.87
2023-03-28T19:44:56.751Z,3.20
2023-03-28T19:47:24.378Z,3.07
2023-03-28T19:49:51.530Z,3.37
2023-03-28T19:52:18.735Z,3.07
2023-03-28T19:54:45.997Z,2.93
2023-03-28T19:57:13.778Z,2.50
2023-03-28T19:59:41.110Z,2.80
2023-03-28T20:02:11.611Z,3.20
2023-03-28T20:04:38.713Z,2.80
2023-03-28T20:07:06.078Z,2.90
2023-03-28T20:09:34.989Z,2.90
2023-03-28T20:12:02.675Z,3.03
2023-03-28T20:14:29.740Z,3.20
2023-03-28T20:16:56.883Z,2.83
2023-03-28T20:19:24.051Z,2.50
2023-03-28T20:21:51.257Z,2.97
2023-03-28T20:24:18.306Z,2.67
2023-03-28T20:26:45.753Z,2.77
2023-03-28T20:29:13.937Z,3.10
2023-03-28T20:31:41.302Z,2.90
2023-03-28T20:34:08.457Z,3.30
2023-03-28T20:36:35.862Z,3.23
2023-03-28T20:39:04.009Z,3.63
2023-03-28T20:41:31.089Z,3.03
2023-03-28T20:44:03.650Z,3.67
2023-03-28T20:46:38.839Z,3.50
2023-03-28T20:49:06.375Z,3.57
2023-03-28T20:51:37.539Z,3.60
2023-03-28T20:54:06.470Z,3.17
2023-03-28T20:56:33.596Z,3.67
2023-03-28T20:59:00.741Z,3.50
2023-03-28T21:01:30.124Z,3.27
2023-03-28T21:04:00.216Z,3.80
2023-03-28T21:06:36.116Z,3.20
2023-03-28T21:09:06.951Z,3.73
2023-03-28T21:11:37.002Z,3.70
2023-03-28T21:14:06.297Z,3.13
2023-03-28T21:16:34.008Z,4.17
2023-03-28T21:19:02.682Z,3.63
2023-03-28T21:21:30.487Z,3.43
2023-03-28T21:23:57.602Z,3.17
2023-03-28T21:26:25.363Z,3.10
2023-03-28T21:28:53.140Z,3.30
2023-03-28T21:31:25.893Z,3.50
2023-03-28T21:33:56.923Z,3.80
2023-03-28T21:36:25.354Z,3.43
2023-03-28T21:38:53.103Z,4.07
2023-03-28T21:41:20.726Z,3.30
2023-03-28T21:43:48.329Z,3.73
2023-03-28T21:46:18.665Z,3.43
2023-03-28T21:48:48.446Z,3.33
2023-03-28T21:51:17.250Z,3.10
2023-03-28T21:53:45.044Z,3.20
2023-03-28T21:56:14.478Z,3.53
2023-03-28T21:58:42.285Z,3.07
2023-03-28T22:01:13.031Z,3.40
2023-03-28T22:03:40.368Z,3.03
2023-03-28T22:06:08.198Z,2.83
2023-03-28T22:08:35.438Z,3.80
2023-03-28T22:11:04.399Z,2.60
2023-03-28T22:13:32.025Z,3.43
2023-03-28T22:16:00.109Z,3.20
2023-03-28T22:18:28.427Z,3.30
2023-03-28T22:20:55.595Z,3.00
2023-03-28T22:23:24.198Z,2.97
2023-03-28T22:25:53.055Z,3.63
2023-03-28T22:28:24.735Z,3.47
2023-03-28T22:30:56.910Z,3.67
2023-03-28T22:33:25.637Z,3.10
2023-03-28T22:35:53.176Z,2.97
2023-03-28T22:38:20.506Z,2.77
2023-03-28T22:40:47.786Z,2.93
2023-03-28T22:43:16.224Z,3.20
2023-03-28T22:45:43.875Z,3.37
2023-03-28T22:48:14.647Z,3.67
2023-03-28T22:50:44.347Z,3.03
2023-03-28T22:53:12.501Z,2.73
2023-03-28T22:55:39.654Z,2.60
2023-03-28T22:58:07.150Z,2.60
2023-03-28T23:00:34.987Z,3.27
2023-03-28T23:03:02.390Z,2.77
2023-03-28T23:05:29.841Z,2.77
2023-03-28T23:07:57.805Z,2.70
2023-03-28T23:10:24.921Z,3.20
2023-03-28T23:12:52.019Z,2.93
2023-03-28T23:15:19.185Z,2.93
2023-03-28T23:17:46.712Z,2.80
2023-03-28T23:20:15.053Z,2.60
2023-03-28T23:22:46.629Z,2.73
2023-03-28T23:25:15.687Z,2.43
2023-03-28T23:27:43.583Z,2.67
2023-03-28T23:30:13.755Z,2.90
2023-03-28T23:32:41.093Z,2.53
2023-03-28T23:35:10.496Z,2.70
2023-03-28T23:37:38.450Z,2.40
2023-03-28T23:40:11.565Z,2.50
2023-03-28T23:42:38.839Z,2.60
2023-03-28T23:45:06.962Z,2.53
2023-03-28T23:47:34.127Z,2.67
2023-03-28T23:50:01.442Z,2.80
2023-03-28T23:52:28.607Z,3.37
2023-03-28T23:54:56.061Z,2.80
2023-03-28T23:57:25.386Z,2.97
2023-03-28T23:59:52.525Z,3.13
